Time;durP1;ratioP1;P1;durP2;ratioP2;P2;SDS_P1;SDS_P2;PMS_P1;PMS_P2;Temp;Humidity;BMP_temperature;BMP_pressure;BME280_temperature;BME280_humidity;BME280_pressure;Samples;Min_cycle;Max_cycle;Signal;HPM_P1;HPM_P2
2022/12/05 00:02:07;;;;;;;;;54.50;42.00;;;;;3.77;100.00;101380.91;5041745;28;45413;-75
2022/12/05 00:04:32;;;;;;;;;44.00;37.25;;;;;3.74;100.00;101380.19;5032652;28;46892;-76
2022/12/05 00:06:57;;;;;;;;;57.50;41.75;;;;;3.73;100.00;101387.41;5032171;28;45259;-76
2022/12/05 00:09:23;;;;;;;;;54.50;40.50;;;;;3.71;100.00;101383.09;5035069;28;45424;-76
2022/12/05 00:11:48;;;;;;;;;50.50;40.50;;;;;3.70;100.00;101386.72;5032677;28;45247;-76
2022/12/05 00:14:14;;;;;;;;;44.00;39.00;;;;;3.76;100.00;101389.91;5050625;28;49532;-76
2022/12/05 00:16:40;;;;;;;;;50.00;40.00;;;;;3.82;100.00;101396.75;5035533;28;45235;-76
2022/12/05 00:19:07;;;;;;;;;58.75;43.00;;;;;3.78;100.00;101395.22;5037343;28;45544;-75
2022/12/05 00:21:35;;;;;;;;;47.25;36.25;;;;;3.72;100.00;101388.38;5046634;28;45360;-76
2022/12/05 00:24:01;;;;;;;;;48.25;39.00;;;;;3.82;100.00;101400.31;5039681;28;46841;-76
2022/12/05 00:26:27;;;;;;;;;50.25;38.50;;;;;3.73;100.00;101408.03;5032497;28;45374;-76
2022/12/05 00:28:53;;;;;;;;;53.00;35.50;;;;;3.74;100.00;101405.25;5046952;28;45398;-76
2022/12/05 00:31:21;;;;;;;;;61.50;43.00;;;;;3.71;100.00;101408.13;5032902;28;45512;-76
2022/12/05 00:33:47;;;;;;;;;44.75;38.00;;;;;3.64;100.00;101409.44;5035382;28;47224;-75
2022/12/05 00:36:14;;;;;;;;;57.75;43.00;;;;;3.61;100.00;101408.75;5034523;28;45941;-76
2022/12/05 00:38:41;;;;;;;;;41.25;37.00;;;;;3.71;100.00;101405.47;5034741;28;45452;-75
2022/12/05 00:41:09;;;;;;;;;53.00;41.50;;;;;3.76;100.00;101408.72;5036523;28;45492;-75
2022/12/05 00:43:35;;;;;;;;;45.50;34.25;;;;;3.70;100.00;101402.84;5037546;28;45497;-75
2022/12/05 00:46:15;;;;;;;;;49.25;40.25;;;;;3.70;100.00;101397.47;5039077;28;45436;-75
2022/12/05 00:48:41;;;;;;;;;54.50;43.25;;;;;3.72;100.00;101404.50;5022096;28;45335;-75
2022/12/05 00:51:14;;;;;;;;;50.00;39.50;;;;;3.76;100.00;101411.41;5036695;28;45310;-75
2022/12/05 00:53:40;;;;;;;;;51.25;38.00;;;;;3.74;100.00;101409.75;5039737;28;47526;-75
2022/12/05 00:56:12;;;;;;;;;44.50;38.75;;;;;3.73;100.00;101408.91;5023825;28;45679;-75
2022/12/05 00:58:38;;;;;;;;;52.25;42.25;;;;;3.75;100.00;101407.00;5057533;28;45390;-75
2022/12/05 01:01:16;;;;;;;;;55.25;43.25;;;;;3.75;100.00;101407.00;5037986;28;45650;-75
2022/12/05 01:03:43;;;;;;;;;49.00;39.00;;;;;3.81;100.00;101411.13;5031513;28;47011;-75
2022/12/05 01:06:09;;;;;;;;;44.50;40.00;;;;;3.74;100.00;101412.44;5034122;28;45455;-75
2022/12/05 01:08:36;;;;;;;;;68.50;44.00;;;;;3.60;100.00;101412.38;5029269;28;45417;-75
2022/12/05 01:11:02;;;;;;;;;48.00;35.50;;;;;3.52;100.00;101404.75;5031752;28;45431;-75
2022/12/05 01:13:28;;;;;;;;;63.75;47.25;;;;;3.50;100.00;101423.69;5034599;28;46084;-75
2022/12/05 01:15:54;;;;;;;;;62.25;47.50;;;;;3.54;100.00;101416.28;5033560;28;45484;-75
2022/12/05 01:18:20;;;;;;;;;58.50;44.25;;;;;3.62;100.00;101418.53;5034730;28;45459;-76
2022/12/05 01:20:46;;;;;;;;;61.25;44.25;;;;;3.60;100.00;101426.69;5038966;28;45300;-76
2022/12/05 01:23:12;;;;;;;;;42.50;39.25;;;;;3.57;100.00;101432.25;5050642;28;47326;-76
2022/12/05 01:25:39;;;;;;;;;53.00;42.25;;;;;3.52;100.00;101428.94;5038773;28;45302;-76
2022/12/05 01:28:05;;;;;;;;;58.25;47.00;;;;;3.55;100.00;101430.59;5037515;28;45513;-76
2022/12/05 01:30:30;;;;;;;;;55.75;43.00;;;;;3.53;100.00;101441.41;5025877;28;45750;-76
2022/12/05 01:32:56;;;;;;;;;63.50;46.00;;;;;3.47;100.00;101433.72;5031671;28;45727;-76
2022/12/05 01:35:21;;;;;;;;;57.50;42.50;;;;;3.52;100.00;101445.06;5031039;28;45462;-76
2022/12/05 01:37:47;;;;;;;;;66.00;49.00;;;;;3.56;100.00;101443.94;5032114;28;45448;-76
2022/12/05 01:40:12;;;;;;;;;58.25;45.75;;;;;3.55;100.00;101444.91;5038414;28;45735;-76
2022/12/05 01:42:39;;;;;;;;;59.75;43.50;;;;;3.50;100.00;101455.91;5035399;28;46628;-76
2022/12/05 01:45:12;;;;;;;;;63.00;43.50;;;;;3.54;100.00;101464.66;5037039;28;45663;-76
2022/12/05 01:47:38;;;;;;;;;57.00;42.50;;;;;3.58;100.00;101457.31;5040390;28;45487;-76
2022/12/05 01:50:05;;;;;;;;;51.75;43.00;;;;;3.57;100.00;101459.13;5037177;28;45676;-75
2022/12/05 01:52:32;;;;;;;;;65.25;48.25;;;;;3.51;100.00;101459.44;5031325;28;46695;-76
2022/12/05 01:55:03;;;;;;;;;41.75;39.00;;;;;3.47;100.00;101465.94;5033866;28;45358;-76
2022/12/05 01:57:29;;;;;;;;;54.75;42.50;;;;;3.60;100.00;101482.25;5030368;28;45369;-76
2022/12/05 02:00:00;;;;;;;;;45.00;38.25;;;;;3.60;100.00;101493.84;5034050;28;45709;-76
2022/12/05 02:02:28;;;;;;;;;59.00;43.50;;;;;3.59;100.00;101500.19;5033276;28;45528;-76
2022/12/05 02:05:02;;;;;;;;;55.00;44.00;;;;;3.63;100.00;101500.88;5030899;28;45314;-76
2022/12/05 02:07:28;;;;;;;;;53.25;43.75;;;;;3.70;100.00;101499.59;5036049;28;45451;-76
2022/12/05 02:09:53;;;;;;;;;53.25;43.50;;;;;3.68;100.00;101491.59;5037114;28;45444;-76
2022/12/05 02:12:20;;;;;;;;;53.00;43.50;;;;;3.76;100.00;101499.25;5040682;28;47121;-76
2022/12/05 02:15:03;;;;;;;;;54.25;41.00;;;;;3.78;100.00;101495.53;5042554;28;45837;-76
2022/12/05 02:17:56;;;;;;;;;55.50;42.25;;;;;3.77;100.00;101490.22;5040735;28;45409;-76
2022/12/05 02:20:50;;;;;;;;;65.50;49.00;;;;;3.70;100.00;101500.47;5036930;28;45670;-76
2022/12/05 02:23:15;;;;;;;;;66.25;47.00;;;;;3.68;100.00;101499.66;5041981;28;45366;-76
2022/12/05 02:25:49;;;;;;;;;59.50;43.00;;;;;3.67;100.00;101494.38;5040321;28;45555;-76
2022/12/05 02:28:33;;;;;;;;;62.25;47.00;;;;;3.62;100.00;101491.97;5043556;28;45487;-76
2022/12/05 02:31:07;;;;;;;;;54.25;40.00;;;;;3.66;100.00;101496.19;5038110;28;45356;-76
2022/12/05 02:33:52;;;;;;;;;65.25;45.50;;;;;3.59;100.00;101496.63;5027513;28;45371;-76
2022/12/05 02:36:52;;;;;;;;;60.25;46.75;;;;;3.51;100.00;101481.78;5030223;28;45406;-76
2022/12/05 02:39:31;;;;;;;;;61.00;46.50;;;;;3.60;100.00;101488.47;5039634;28;45442;-76
2022/12/05 02:42:07;;;;;;;;;63.00;47.00;;;;;3.60;100.00;101496.53;5031317;28;45244;-76
2022/12/05 02:44:46;;;;;;;;;57.75;46.00;;;;;3.59;100.00;101492.13;5031855;28;45445;-76
2022/12/05 02:47:15;;;;;;;;;55.50;43.00;;;;;3.49;100.00;101486.41;5041831;28;45507;-76
2022/12/05 02:49:42;;;;;;;;;64.75;51.00;;;;;3.45;100.00;101484.84;5034130;28;45393;-76
2022/12/05 02:52:13;;;;;;;;;56.25;46.25;;;;;3.52;100.00;101490.72;5042090;28;45354;-76
2022/12/05 02:54:43;;;;;;;;;64.75;46.50;;;;;3.56;100.00;101489.63;5033893;28;45450;-76
2022/12/05 02:57:10;;;;;;;;;63.25;47.00;;;;;3.54;100.00;101494.22;5036271;28;45311;-76
2022/12/05 02:59:36;;;;;;;;;48.50;35.50;;;;;3.43;100.00;101491.25;5024904;28;45555;-77
2022/12/05 03:02:02;;;;;;;;;60.75;47.25;;;;;3.46;100.00;101496.44;5033012;28;45379;-76
2022/12/05 03:04:30;;;;;;;;;69.50;51.00;;;;;3.41;100.00;101495.84;5042245;28;47829;-76
2022/12/05 03:07:10;;;;;;;;;49.50;40.25;;;;;3.44;100.00;101504.59;5037111;28;45681;-76
2022/12/05 03:09:42;;;;;;;;;66.25;44.75;;;;;3.49;100.00;101498.97;5032153;28;45469;-76
2022/12/05 03:12:17;;;;;;;;;65.50;49.50;;;;;3.43;100.00;101493.94;5033883;28;45369;-76
2022/12/05 03:14:46;;;;;;;;;64.75;47.50;;;;;3.39;100.00;101500.41;5040118;28;47680;-76
2022/12/05 03:17:23;;;;;;;;;59.75;44.00;;;;;3.34;100.00;101499.81;5040009;28;45393;-76
2022/12/05 03:19:54;;;;;;;;;65.00;47.00;;;;;3.37;100.00;101503.19;5039863;28;45411;-76
2022/12/05 03:22:44;;;;;;;;;65.50;48.75;;;;;3.33;100.00;101496.25;5034525;28;45267;-76
2022/12/05 03:25:12;;;;;;;;;55.00;47.25;;;;;3.20;100.00;101497.03;5031868;28;47562;-76
2022/12/05 03:27:46;;;;;;;;;63.00;49.75;;;;;3.23;100.00;101504.88;5027308;28;45161;-76
2022/12/05 03:30:15;;;;;;;;;73.25;54.25;;;;;3.30;100.00;101514.34;5041513;28;45347;-76
2022/12/05 03:33:02;;;;;;;;;74.00;53.50;;;;;3.21;100.00;101507.69;5034289;28;45368;-76
2022/12/05 03:35:35;;;;;;;;;67.25;51.25;;;;;3.05;100.00;101507.63;5033553;28;45456;-76
2022/12/05 03:38:15;;;;;;;;;60.25;47.75;;;;;3.01;100.00;101516.78;5042520;28;45616;-76
2022/12/05 03:40:59;;;;;;;;;65.25;47.75;;;;;3.02;100.00;101512.28;5041776;28;45413;-76
2022/12/05 03:43:45;;;;;;;;;72.50;48.25;;;;;3.08;100.00;101523.56;5032379;28;46041;-76
2022/12/05 03:46:25;;;;;;;;;55.00;44.75;;;;;3.12;100.00;101530.53;5034636;28;45407;-76
2022/12/05 03:48:56;;;;;;;;;66.75;53.75;;;;;3.14;100.00;101522.41;5039984;28;45277;-76
2022/12/05 03:51:40;;;;;;;;;67.00;50.25;;;;;3.05;100.00;101523.75;5034985;28;45486;-76
2022/12/05 03:54:18;;;;;;;;;66.75;47.50;;;;;3.11;100.00;101528.78;5030740;28;45455;-76
2022/12/05 03:56:50;;;;;;;;;63.50;52.75;;;;;3.17;100.00;101527.56;5036595;28;46299;-76
2022/12/05 03:59:35;;;;;;;;;58.00;47.75;;;;;3.30;100.00;101525.09;5026280;28;45385;-76
2022/12/05 04:02:08;;;;;;;;;63.00;44.25;;;;;3.29;100.00;101526.91;5031475;28;45513;-75
2022/12/05 04:04:41;;;;;;;;;68.00;48.75;;;;;3.36;100.00;101524.78;5039765;28;45689;-75
2022/12/05 04:07:08;;;;;;;;;69.75;52.25;;;;;3.40;100.00;101523.66;5035059;28;48068;-76
2022/12/05 04:09:43;;;;;;;;;63.75;51.00;;;;;3.42;100.00;101524.44;5032146;28;45346;-76
2022/12/05 04:12:34;;;;;;;;;60.50;47.75;;;;;3.39;100.00;101527.28;5035783;28;45596;-76
2022/12/05 04:15:07;;;;;;;;;65.50;48.00;;;;;3.22;100.00;101535.38;5036630;28;45557;-76
2022/12/05 04:17:39;;;;;;;;;69.00;53.50;;;;;3.17;100.00;101532.94;5039166;28;46405;-76
2022/12/05 04:22:57;;;;;;;;;67.00;51.50;;;;;3.20;100.00;101548.03;5036322;28;45480;-76
2022/12/05 04:25:33;;;;;;;;;67.25;48.50;;;;;3.25;100.00;101540.59;5025335;28;45362;-77
2022/12/05 04:28:01;;;;;;;;;55.25;42.25;;;;;3.30;100.00;101541.19;5036918;28;47155;-77
2022/12/05 04:30:40;;;;;;;;;68.75;48.75;;;;;3.17;100.00;101524.03;5025468;28;45329;-77
2022/12/05 04:33:11;;;;;;;;;62.50;46.50;;;;;3.30;100.00;101546.56;5028835;28;45440;-76
2022/12/05 04:36:06;;;;;;;;;65.75;50.00;;;;;3.23;100.00;101539.78;5038428;28;45353;-76
2022/12/05 04:38:42;;;;;;;;;68.00;51.00;;;;;3.29;100.00;101548.38;5038107;28;46651;-76
2022/12/05 04:41:15;;;;;;;;;65.00;47.50;;;;;3.30;100.00;101538.53;5037977;28;45603;-76
2022/12/05 04:43:43;;;;;;;;;61.50;45.50;;;;;3.43;100.00;101544.97;5037954;28;45362;-77
2022/12/05 04:46:10;;;;;;;;;54.50;43.50;;;;;3.42;100.00;101538.75;5026696;28;45429;-77
2022/12/05 04:48:39;;;;;;;;;50.75;37.75;;;;;3.41;100.00;101552.25;5029823;28;45658;-77
2022/12/05 04:51:08;;;;;;;;;59.25;46.50;;;;;3.36;100.00;101555.16;5037674;28;45478;-78
2022/12/05 04:53:35;;;;;;;;;60.25;51.00;;;;;3.33;100.00;101552.66;5034196;28;45604;-74
2022/12/05 04:56:03;;;;;;;;;68.25;53.00;;;;;3.27;100.00;101552.13;5025601;28;45181;-74
2022/12/05 04:58:31;;;;;;;;;72.75;52.00;;;;;3.14;100.00;101558.13;5039289;28;46694;-77
2022/12/05 05:01:09;;;;;;;;;65.75;50.75;;;;;3.09;100.00;101546.78;5036378;28;45335;-75
2022/12/05 05:04:11;;;;;;;;;49.00;44.50;;;;;3.12;100.00;101569.94;5032748;28;45310;-75
2022/12/05 05:06:38;;;;;;;;;71.75;52.50;;;;;3.24;100.00;101565.72;5033719;28;45314;-75
2022/12/05 05:09:04;;;;;;;;;64.75;49.00;;;;;3.20;100.00;101564.16;5030111;28;46211;-75
2022/12/05 05:11:32;;;;;;;;;69.00;51.00;;;;;3.21;100.00;101566.75;5027142;28;45295;-75
2022/12/05 05:13:58;;;;;;;;;62.50;47.00;;;;;3.27;100.00;101566.44;5041617;28;45406;-74
2022/12/05 05:16:30;;;;;;;;;59.50;43.50;;;;;3.41;100.00;101571.06;5039973;28;45392;-75
2022/12/05 05:18:55;;;;;;;;;59.25;46.50;;;;;3.42;100.00;101570.09;5030477;28;46583;-75
2022/12/05 05:21:23;;;;;;;;;60.25;45.00;;;;;3.49;100.00;101575.06;5036954;28;45317;-75
2022/12/05 05:23:49;;;;;;;;;63.75;47.50;;;;;3.57;100.00;101568.41;5030157;28;45315;-75
2022/12/05 05:26:15;;;;;;;;;58.50;48.25;;;;;3.60;100.00;101571.78;5031752;28;45255;-75
2022/12/05 05:28:41;;;;;;;;;58.50;45.50;;;;;3.57;100.00;101579.16;5031450;28;46168;-75
2022/12/05 05:31:07;;;;;;;;;48.75;42.00;;;;;3.53;100.00;101576.63;5032852;28;45295;-75
2022/12/05 05:33:35;;;;;;;;;60.50;46.25;;;;;3.37;100.00;101588.28;5035725;28;45555;-75
2022/12/05 05:36:04;;;;;;;;;60.00;49.50;;;;;3.38;100.00;101579.25;5034096;28;45373;-75
2022/12/05 05:38:29;;;;;;;;;56.00;41.50;;;;;3.37;100.00;101575.72;5033568;28;45303;-75
2022/12/05 05:40:54;;;;;;;;;59.25;43.00;;;;;3.49;100.00;101584.94;5036614;28;45323;-75
2022/12/05 05:43:20;;;;;;;;;58.00;40.00;;;;;3.51;100.00;101585.69;5030927;28;45388;-76
2022/12/05 05:45:45;;;;;;;;;54.75;43.00;;;;;3.46;100.00;101577.03;5032554;28;45255;-75
2022/12/05 05:48:10;;;;;;;;;71.00;52.00;;;;;3.52;100.00;101584.75;5034680;28;48291;-76
2022/12/05 05:50:36;;;;;;;;;59.50;48.00;;;;;3.58;100.00;101591.66;5033148;28;45418;-75
2022/12/05 05:53:01;;;;;;;;;62.75;46.00;;;;;3.65;100.00;101591.22;5025543;28;45444;-75
2022/12/05 05:55:27;;;;;;;;;51.75;40.50;;;;;3.69;100.00;101595.47;5031473;28;45494;-76
2022/12/05 05:57:52;;;;;;;;;56.00;41.50;;;;;3.72;100.00;101600.69;5030771;28;45389;-75
2022/12/05 06:00:17;;;;;;;;;56.00;42.25;;;;;3.74;100.00;101597.88;5035350;28;47879;-75
2022/12/05 06:02:43;;;;;;;;;65.00;46.75;;;;;3.74;100.00;101601.44;5032728;28;45326;-79
2022/12/05 06:05:08;;;;;;;;;49.75;39.50;;;;;3.72;100.00;101598.00;5030347;28;45260;-76
2022/12/05 06:07:34;;;;;;;;;46.00;38.75;;;;;3.76;100.00;101613.00;5031725;28;46634;-75
2022/12/05 06:09:59;;;;;;;;;59.25;45.75;;;;;3.72;100.00;101611.44;5028434;28;45248;-75
2022/12/05 06:12:24;;;;;;;;;69.50;44.25;;;;;3.72;100.00;101613.25;5032159;28;45955;-76
2022/12/05 06:14:50;;;;;;;;;55.50;43.75;;;;;3.66;100.00;101609.06;5030753;28;45339;-77
2022/12/05 06:17:16;;;;;;;;;65.25;46.25;;;;;3.51;100.00;101615.25;5037145;28;46333;-76
2022/12/05 06:19:41;;;;;;;;;55.25;42.00;;;;;3.61;100.00;101611.13;5034335;28;45511;-76
2022/12/05 06:22:07;;;;;;;;;50.25;43.50;;;;;3.68;100.00;101619.72;5035580;28;45386;-76
2022/12/05 06:24:32;;;;;;;;;65.25;46.25;;;;;3.65;100.00;101612.72;5037022;28;45433;-77
2022/12/05 06:26:58;;;;;;;;;50.50;40.25;;;;;3.67;100.00;101616.19;5028321;28;46395;-75
2022/12/05 06:29:23;;;;;;;;;61.25;43.25;;;;;3.63;100.00;101608.38;5037553;28;45375;-75
2022/12/05 06:31:48;;;;;;;;;51.50;43.25;;;;;3.70;100.00;101621.41;5032816;28;45326;-79
2022/12/05 06:34:14;;;;;;;;;59.75;46.75;;;;;3.67;100.00;101634.97;5025104;28;45367;-76
2022/12/05 06:36:39;;;;;;;;;61.50;44.75;;;;;3.51;100.00;101631.38;5026541;28;47551;-75
2022/12/05 06:39:05;;;;;;;;;56.75;43.75;;;;;3.53;100.00;101642.91;5025892;28;45328;-75
2022/12/05 06:41:30;;;;;;;;;55.50;44.00;;;;;3.50;100.00;101646.66;5026819;28;45439;-76
2022/12/05 06:43:57;;;;;;;;;54.50;44.00;;;;;3.61;100.00;101651.44;5037811;28;45501;-77
2022/12/05 06:46:24;;;;;;;;;49.75;43.75;;;;;3.65;100.00;101657.53;5036449;28;45346;-76
2022/12/05 06:48:52;;;;;;;;;61.75;44.00;;;;;3.67;100.00;101656.47;5028510;28;45328;-75
2022/12/05 06:51:18;;;;;;;;;54.00;41.00;;;;;3.70;100.00;101656.34;5031739;28;45390;-76
2022/12/05 06:53:44;;;;;;;;;41.75;35.50;;;;;3.61;100.00;101650.56;5026000;28;45329;-75
2022/12/05 06:56:12;;;;;;;;;37.75;29.00;;;;;3.59;100.00;101661.41;5037443;28;47448;-75
2022/12/05 06:58:38;;;;;;;;;47.00;40.00;;;;;3.41;100.00;101660.56;5032813;28;45319;-77
2022/12/05 07:03:48;;;;;;;;;47.25;43.00;;;;;3.42;100.00;101662.31;5033013;28;45238;-78
2022/12/05 07:06:14;;;;;;;;;62.00;45.25;;;;;3.52;100.00;101668.03;5038046;28;46116;-76
2022/12/05 07:08:40;;;;;;;;;63.50;45.50;;;;;3.43;100.00;101669.41;5033989;28;45129;-76
2022/12/05 07:11:06;;;;;;;;;49.25;33.25;;;;;3.52;100.00;101670.72;5031181;28;45880;-76
2022/12/05 07:13:31;;;;;;;;;59.50;45.00;;;;;3.55;100.00;101673.28;5037022;28;45425;-76
2022/12/05 07:15:57;;;;;;;;;50.25;43.50;;;;;3.56;100.00;101680.38;5040614;28;45355;-75
2022/12/05 07:18:23;;;;;;;;;47.25;38.25;;;;;3.60;100.00;101683.75;5039450;28;45540;-76
2022/12/05 07:21:01;;;;;;;;;61.75;44.00;;;;;3.56;100.00;101684.88;5039184;28;45489;-75
2022/12/05 07:23:27;;;;;;;;;65.25;46.25;;;;;3.45;100.00;101689.00;5040804;28;45445;-75
2022/12/05 07:25:52;;;;;;;;;58.75;43.75;;;;;3.45;100.00;101682.75;5032987;28;47039;-78
2022/12/05 07:28:18;;;;;;;;;49.00;39.25;;;;;3.44;100.00;101681.88;5033504;28;45143;-77
2022/12/05 07:30:43;;;;;;;;;60.00;45.50;;;;;3.30;100.00;101688.91;5038686;28;45142;-75
2022/12/05 07:33:08;;;;;;;;;62.50;44.50;;;;;3.21;100.00;101689.41;5038090;28;45592;-75
2022/12/05 07:35:34;;;;;;;;;55.25;42.50;;;;;3.17;100.00;101694.06;5030553;28;47466;-75
2022/12/05 07:37:59;;;;;;;;;53.00;42.25;;;;;3.29;100.00;101695.25;5037174;28;45350;-76
2022/12/05 07:40:24;;;;;;;;;56.00;38.25;;;;;3.25;100.00;101690.97;5032187;28;45324;-76
2022/12/05 07:42:52;;;;;;;;;51.75;45.25;;;;;3.27;100.00;101695.34;5034099;28;45354;-76
2022/12/05 07:45:18;;;;;;;;;60.75;45.75;;;;;3.23;100.00;101703.59;5032349;28;47101;-76
2022/12/05 07:47:43;;;;;;;;;58.50;43.75;;;;;3.15;100.00;101704.00;5039217;28;45354;-76
2022/12/05 07:50:09;;;;;;;;;66.50;46.75;;;;;3.03;100.00;101707.31;5026542;28;45274;-77
2022/12/05 07:52:34;;;;;;;;;58.25;46.50;;;;;3.20;100.00;101717.22;5034670;28;45482;-76
2022/12/05 07:54:59;;;;;;;;;59.00;47.00;;;;;3.28;100.00;101707.81;5028812;28;45490;-76
2022/12/05 07:57:25;;;;;;;;;64.00;45.50;;;;;3.32;100.00;101708.50;5034465;28;45891;-76
2022/12/05 07:59:50;;;;;;;;;61.75;44.50;;;;;3.31;100.00;101704.97;5037702;28;45710;-76
2022/12/05 08:02:15;;;;;;;;;65.00;47.00;;;;;3.42;100.00;101717.84;5032207;28;45369;-76
2022/12/05 08:04:41;;;;;;;;;68.50;49.00;;;;;3.35;100.00;101721.81;5042358;28;46541;-77
2022/12/05 08:07:09;;;;;;;;;60.75;47.00;;;;;3.29;100.00;101725.66;5031957;28;45362;-76
2022/12/05 08:09:35;;;;;;;;;58.25;46.50;;;;;3.33;100.00;101731.75;5032347;28;45342;-76
2022/12/05 08:12:00;;;;;;;;;64.50;47.50;;;;;3.32;100.00;101735.38;5034258;28;45340;-75
2022/12/05 08:14:26;;;;;;;;;57.75;44.50;;;;;3.39;100.00;101742.16;5040074;28;46715;-75
2022/12/05 08:16:51;;;;;;;;;48.50;44.75;;;;;3.33;100.00;101745.19;5036447;28;45299;-75
2022/12/05 08:19:16;;;;;;;;;58.75;45.00;;;;;3.30;100.00;101739.94;5034293;28;45319;-76
2022/12/05 08:21:42;;;;;;;;;66.75;46.25;;;;;3.36;100.00;101753.94;5030033;28;45462;-77
2022/12/05 08:24:07;;;;;;;;;66.75;47.25;;;;;3.38;100.00;101746.69;5032259;28;46090;-76
2022/12/05 08:26:35;;;;;;;;;58.50;42.00;;;;;3.46;100.00;101757.03;5034552;28;45417;-77
2022/12/05 08:29:03;;;;;;;;;62.75;45.25;;;;;3.43;100.00;101754.53;5032937;28;45343;-78
2022/12/05 08:31:31;;;;;;;;;66.25;44.50;;;;;3.44;100.00;101753.53;5034623;28;45449;-76
2022/12/05 08:33:58;;;;;;;;;56.25;42.50;;;;;3.41;100.00;101761.78;5031198;28;45620;-78
2022/12/05 08:36:25;;;;;;;;;67.50;46.50;;;;;3.43;100.00;101757.19;5037874;28;45403;-77
2022/12/05 08:38:55;;;;;;;;;46.50;39.00;;;;;3.36;100.00;101750.41;5039869;28;45311;-77
2022/12/05 08:41:21;;;;;;;;;66.25;47.25;;;;;3.32;100.00;101754.19;5026577;28;45351;-76
2022/12/05 08:43:46;;;;;;;;;62.00;47.00;;;;;3.37;100.00;101760.19;5041497;28;46961;-76
2022/12/05 08:46:12;;;;;;;;;66.75;46.25;;;;;3.41;100.00;101751.91;5038523;28;45405;-78
2022/12/05 08:48:37;;;;;;;;;66.25;47.75;;;;;3.47;100.00;101756.09;5031095;28;45351;-77
2022/12/05 08:51:08;;;;;;;;;66.75;50.25;;;;;3.58;100.00;101752.84;5027979;28;45418;-76
2022/12/05 08:53:35;;;;;;;;;63.75;47.75;;;;;3.51;100.00;101760.34;5031402;28;45563;-76
2022/12/05 08:56:05;;;;;;;;;61.25;47.75;;;;;3.57;100.00;101752.00;5035097;28;46150;-76
2022/12/05 08:58:31;;;;;;;;;60.50;46.75;;;;;3.59;100.00;101760.81;5032894;28;45405;-75
2022/12/05 09:01:24;;;;;;;;;68.75;50.50;;;;;3.61;100.00;101763.44;5030781;28;45217;-76
2022/12/05 09:03:50;;;;;;;;;67.50;48.75;;;;;3.60;100.00;101757.19;5051866;28;46807;-76
2022/12/05 09:06:21;;;;;;;;;64.00;47.25;;;;;3.59;100.00;101762.63;5029337;28;45461;-75
2022/12/05 09:08:47;;;;;;;;;62.75;45.75;;;;;3.56;100.00;101774.44;5039097;28;45412;-76
2022/12/05 09:11:16;;;;;;;;;57.50;47.00;;;;;3.66;100.00;101766.75;5032666;28;45403;-76
2022/12/05 09:13:43;;;;;;;;;71.00;47.50;;;;;3.59;100.00;101779.63;5035655;28;46931;-75
2022/12/05 09:16:15;;;;;;;;;66.50;50.50;;;;;3.60;100.00;101775.13;5031057;28;45378;-77
2022/12/05 09:18:41;;;;;;;;;68.00;52.25;;;;;3.65;100.00;101783.84;5025349;28;45421;-76
2022/12/05 09:21:08;;;;;;;;;63.75;45.75;;;;;3.70;100.00;101785.34;5050674;28;45598;-77
2022/12/05 09:23:33;;;;;;;;;61.50;46.50;;;;;3.82;100.00;101779.31;5028284;28;48074;-74
2022/12/05 09:26:02;;;;;;;;;56.00;45.00;;;;;3.90;100.00;101778.91;5036259;28;45330;-77
2022/12/05 09:28:28;;;;;;;;;63.25;49.00;;;;;3.98;100.00;101786.56;5033083;28;45525;-77
2022/12/05 09:31:00;;;;;;;;;60.00;45.50;;;;;3.65;100.00;101787.41;5036702;28;45330;-77
2022/12/05 09:33:29;;;;;;;;;64.25;47.25;;;;;3.62;100.00;101766.03;5030285;28;46485;-75
2022/12/05 09:35:56;;;;;;;;;63.75;49.25;;;;;3.67;100.00;101795.34;5035925;28;45448;-76
2022/12/05 09:38:22;;;;;;;;;65.50;47.00;;;;;3.70;100.00;101790.72;5039164;28;45291;-75
2022/12/05 09:41:06;;;;;;;;;62.50;49.75;;;;;3.76;100.00;101782.31;5035888;28;45342;-76
2022/12/05 09:43:31;;;;;;;;;55.25;41.75;;;;;3.92;100.00;101794.03;5026863;28;45299;-75
2022/12/05 09:46:09;;;;;;;;;52.75;44.00;;;;;3.90;100.00;101771.72;5039407;28;45477;-75
2022/12/05 09:48:39;;;;;;;;;46.50;39.50;;;;;4.01;100.00;101789.13;5029653;28;45386;-77
2022/12/05 09:51:09;;;;;;;;;59.25;47.00;;;;;4.09;100.00;101786.88;5024910;28;45509;-75
2022/12/05 09:53:38;;;;;;;;;57.25;46.00;;;;;4.17;100.00;101804.31;5037226;28;47947;-77
2022/12/05 09:56:24;;;;;;;;;54.25;42.75;;;;;4.09;100.00;101800.34;5026084;28;45286;-75
2022/12/05 09:58:52;;;;;;;;;63.75;49.50;;;;;4.07;100.00;101795.03;5040728;28;45331;-76
2022/12/05 10:01:23;;;;;;;;;67.75;53.00;;;;;3.92;100.00;101804.78;5031132;28;45182;-76
2022/12/05 10:04:09;;;;;;;;;60.50;47.25;;;;;4.00;100.00;101799.00;5036521;28;48376;-76
2022/12/05 10:06:52;;;;;;;;;65.50;48.50;;;;;3.96;100.00;101796.53;5016856;28;45391;-76
2022/12/05 10:09:36;;;;;;;;;71.00;48.75;;;;;4.19;100.00;101809.63;5032265;28;45408;-76
2022/12/05 10:12:21;;;;;;;;;60.75;42.75;;;;;4.15;100.00;101800.88;5036776;28;45461;-76
2022/12/05 10:15:07;;;;;;;;;57.50;46.25;;;;;4.16;100.00;101802.63;5032840;28;45608;-76
2022/12/05 10:17:35;;;;;;;;;65.50;47.75;;;;;4.17;100.00;101814.22;5033791;28;45376;-76
2022/12/05 10:20:18;;;;;;;;;49.25;34.50;;;;;4.08;100.00;101809.34;5035060;28;45466;-77
2022/12/05 10:22:51;;;;;;;;;59.75;43.00;;;;;4.16;100.00;101809.81;5031093;28;46278;-76
2022/12/05 10:25:23;;;;;;;;;62.50;47.50;;;;;4.20;100.00;101806.88;5039481;28;47005;-75
2022/12/05 10:27:52;;;;;;;;;64.00;50.50;;;;;4.25;100.00;101804.78;5032221;28;45417;-77
2022/12/05 10:30:23;;;;;;;;;74.75;55.00;;;;;4.15;100.00;101811.63;5037934;28;45441;-77
2022/12/05 10:33:07;;;;;;;;;67.25;51.50;;;;;4.25;100.00;101806.59;5036370;28;45478;-76
2022/12/05 10:35:36;;;;;;;;;64.00;47.25;;;;;4.23;100.00;101800.47;5035148;28;45617;-75
2022/12/05 10:38:11;;;;;;;;;64.75;49.00;;;;;4.20;100.00;101816.75;5035054;28;45308;-76
2022/12/05 10:40:44;;;;;;;;;66.75;48.00;;;;;4.09;100.00;101803.84;5040509;28;45524;-76
2022/12/05 10:43:15;;;;;;;;;61.00;46.25;;;;;4.24;100.00;101803.03;5046233;28;45377;-77
2022/12/05 10:45:43;;;;;;;;;61.50;48.25;;;;;4.26;100.00;101803.84;5037195;28;45340;-77
2022/12/05 10:48:12;;;;;;;;;65.50;49.75;;;;;4.37;100.00;101800.59;5030976;28;45499;-77
2022/12/05 10:50:38;;;;;;;;;65.75;49.25;;;;;4.47;100.00;101796.41;5036842;28;45446;-75
2022/12/05 10:53:05;;;;;;;;;70.00;52.75;;;;;4.55;100.00;101796.88;5042339;28;45393;-76
2022/12/05 10:55:40;;;;;;;;;62.50;46.50;;;;;4.53;100.00;101803.31;5030336;28;46501;-76
2022/12/05 10:58:27;;;;;;;;;68.50;51.50;;;;;4.52;100.00;101806.97;5042358;28;45501;-78
2022/12/05 11:01:06;;;;;;;;;69.50;52.00;;;;;4.47;100.00;101809.88;5039237;28;45682;-78
2022/12/05 11:03:36;;;;;;;;;90.75;64.25;;;;;4.46;100.00;101810.81;5038390;28;45257;-77
2022/12/05 11:06:15;;;;;;;;;68.25;50.00;;;;;4.16;100.00;101804.44;5036531;28;47823;-76
2022/12/05 11:08:41;;;;;;;;;59.75;46.00;;;;;4.24;100.00;101804.88;5037097;28;45461;-76
2022/12/05 11:11:17;;;;;;;;;65.00;46.25;;;;;4.30;100.00;101812.63;5030856;28;45294;-76
2022/12/05 11:13:53;;;;;;;;;60.75;43.25;;;;;4.36;100.00;101806.03;5037754;28;45339;-77
2022/12/05 11:16:30;;;;;;;;;73.00;52.00;;;;;4.35;100.00;101802.47;5038396;28;47124;-75
2022/12/05 11:18:55;;;;;;;;;58.75;46.50;;;;;4.40;100.00;101808.47;5034940;28;45477;-76
2022/12/05 11:21:21;;;;;;;;;58.50;45.00;;;;;4.32;100.00;101811.56;5037577;28;45356;-77
2022/12/05 11:23:47;;;;;;;;;63.50;50.25;;;;;4.42;100.00;101806.56;5033475;28;45347;-77
2022/12/05 11:26:18;;;;;;;;;63.00;49.50;;;;;4.40;100.00;101786.94;5035028;28;46407;-77
2022/12/05 11:28:43;;;;;;;;;67.25;51.50;;;;;4.58;100.00;101815.56;5043216;28;45428;-78